sensor_id;sensor_type;location;lat;lon;timestamp;P1;durP1;ratioP1;P2;durP2;ratioP2
52412;SDS011;38339;53.234;6.578;2022-07-22T00:01:33;18.70;;;5.68;;
52412;SDS011;38339;53.234;6.578;2022-07-22T00:03:59;18.38;;;5.20;;
52412;SDS011;38339;53.234;6.578;2022-07-22T00:06:27;16.83;;;5.30;;
52412;SDS011;38339;53.234;6.578;2022-07-22T00:08:53;12.13;;;5.00;;
52412;SDS011;38339;53.234;6.578;2022-07-22T00:11:19;13.07;;;4.57;;
52412;SDS011;38339;53.234;6.578;2022-07-22T00:13:45;17.50;;;5.03;;
52412;SDS011;38339;53.234;6.578;2022-07-22T00:16:11;10.45;;;4.70;;
52412;SDS011;38339;53.234;6.578;2022-07-22T00:18:37;14.40;;;4.90;;
52412;SDS011;38339;53.234;6.578;2022-07-22T00:21:02;11.23;;;4.80;;
52412;SDS011;38339;53.234;6.578;2022-07-22T00:23:29;16.05;;;4.65;;
52412;SDS011;38339;53.234;6.578;2022-07-22T00:25:54;15.60;;;5.18;;
52412;SDS011;38339;53.234;6.578;2022-07-22T00:28:20;16.27;;;4.70;;
52412;SDS011;38339;53.234;6.578;2022-07-22T00:30:46;11.57;;;4.72;;
52412;SDS011;38339;53.234;6.578;2022-07-22T00:33:12;11.75;;;4.35;;
52412;SDS011;38339;53.234;6.578;2022-07-22T00:35:37;14.02;;;4.30;;
52412;SDS011;38339;53.234;6.578;2022-07-22T00:38:03;14.50;;;3.97;;
52412;SDS011;38339;53.234;6.578;2022-07-22T00:40:29;15.52;;;3.97;;
52412;SDS011;38339;53.234;6.578;2022-07-22T00:42:54;12.75;;;4.07;;
52412;SDS011;38339;53.234;6.578;2022-07-22T00:45:20;13.60;;;3.80;;
52412;SDS011;38339;53.234;6.578;2022-07-22T00:47:46;12.27;;;3.70;;
52412;SDS011;38339;53.234;6.578;2022-07-22T00:50:11;14.20;;;4.30;;
52412;SDS011;38339;53.234;6.578;2022-07-22T00:52:40;8.85;;;3.60;;
52412;SDS011;38339;53.234;6.578;2022-07-22T00:55:07;11.65;;;3.47;;
52412;SDS011;38339;53.234;6.578;2022-07-22T00:57:33;10.52;;;3.30;;
52412;SDS011;38339;53.234;6.578;2022-07-22T00:59:59;9.30;;;3.45;;
52412;SDS011;38339;53.234;6.578;2022-07-22T01:02:25;9.75;;;3.60;;
52412;SDS011;38339;53.234;6.578;2022-07-22T01:04:50;9.05;;;3.47;;
52412;SDS011;38339;53.234;6.578;2022-07-22T01:07:16;7.50;;;2.80;;
52412;SDS011;38339;53.234;6.578;2022-07-22T01:09:42;12.38;;;3.72;;
52412;SDS011;38339;53.234;6.578;2022-07-22T01:12:09;11.88;;;3.42;;
52412;SDS011;38339;53.234;6.578;2022-07-22T01:14:36;9.98;;;3.25;;
52412;SDS011;38339;53.234;6.578;2022-07-22T01:17:01;11.20;;;3.95;;
52412;SDS011;38339;53.234;6.578;2022-07-22T01:19:28;17.00;;;3.50;;
52412;SDS011;38339;53.234;6.578;2022-07-22T01:21:53;9.10;;;3.13;;
52412;SDS011;38339;53.234;6.578;2022-07-22T01:24:19;9.88;;;3.35;;
52412;SDS011;38339;53.234;6.578;2022-07-22T01:26:45;16.63;;;3.10;;
52412;SDS011;38339;53.234;6.578;2022-07-22T01:29:11;9.15;;;3.25;;
52412;SDS011;38339;53.234;6.578;2022-07-22T01:31:37;9.50;;;2.90;;
52412;SDS011;38339;53.234;6.578;2022-07-22T01:34:02;8.15;;;3.00;;
52412;SDS011;38339;53.234;6.578;2022-07-22T01:36:28;8.32;;;2.80;;
52412;SDS011;38339;53.234;6.578;2022-07-22T01:38:54;9.38;;;2.75;;
52412;SDS011;38339;53.234;6.578;2022-07-22T01:41:20;9.40;;;2.45;;
52412;SDS011;38339;53.234;6.578;2022-07-22T01:43:46;12.60;;;3.28;;
52412;SDS011;38339;53.234;6.578;2022-07-22T01:46:11;7.85;;;2.92;;
52412;SDS011;38339;53.234;6.578;2022-07-22T01:48:37;10.63;;;3.00;;
52412;SDS011;38339;53.234;6.578;2022-07-22T01:51:03;11.50;;;2.70;;
52412;SDS011;38339;53.234;6.578;2022-07-22T01:53:29;9.27;;;2.95;;
52412;SDS011;38339;53.234;6.578;2022-07-22T01:55:54;12.32;;;2.33;;
52412;SDS011;38339;53.234;6.578;2022-07-22T01:58:20;6.50;;;2.30;;
52412;SDS011;38339;53.234;6.578;2022-07-22T02:00:46;10.60;;;2.30;;
52412;SDS011;38339;53.234;6.578;2022-07-22T02:03:13;7.38;;;2.97;;
52412;SDS011;38339;53.234;6.578;2022-07-22T02:05:38;10.02;;;2.45;;
52412;SDS011;38339;53.234;6.578;2022-07-22T02:08:05;10.18;;;2.97;;
52412;SDS011;38339;53.234;6.578;2022-07-22T02:10:34;8.73;;;2.65;;
52412;SDS011;38339;53.234;6.578;2022-07-22T02:13:00;7.25;;;2.20;;
52412;SDS011;38339;53.234;6.578;2022-07-22T02:15:26;9.05;;;2.58;;
52412;SDS011;38339;53.234;6.578;2022-07-22T02:17:52;6.78;;;3.08;;
52412;SDS011;38339;53.234;6.578;2022-07-22T02:20:18;8.43;;;2.55;;
52412;SDS011;38339;53.234;6.578;2022-07-22T02:22:44;6.50;;;2.72;;
52412;SDS011;38339;53.234;6.578;2022-07-22T02:25:10;8.20;;;2.63;;
52412;SDS011;38339;53.234;6.578;2022-07-22T02:27:36;6.78;;;2.55;;
52412;SDS011;38339;53.234;6.578;2022-07-22T02:30:03;6.63;;;2.33;;
52412;SDS011;38339;53.234;6.578;2022-07-22T02:32:30;8.55;;;2.50;;
52412;SDS011;38339;53.234;6.578;2022-07-22T02:34:56;7.45;;;2.65;;
52412;SDS011;38339;53.234;6.578;2022-07-22T02:37:21;9.10;;;2.80;;
52412;SDS011;38339;53.234;6.578;2022-07-22T02:39:47;8.05;;;2.50;;
52412;SDS011;38339;53.234;6.578;2022-07-22T02:42:14;7.97;;;2.70;;
52412;SDS011;38339;53.234;6.578;2022-07-22T02:44:40;8.23;;;2.88;;
52412;SDS011;38339;53.234;6.578;2022-07-22T02:47:05;9.82;;;3.15;;
52412;SDS011;38339;53.234;6.578;2022-07-22T02:49:31;8.40;;;2.45;;
52412;SDS011;38339;53.234;6.578;2022-07-22T02:51:57;5.18;;;2.20;;
52412;SDS011;38339;53.234;6.578;2022-07-22T02:54:22;12.55;;;3.42;;
52412;SDS011;38339;53.234;6.578;2022-07-22T02:56:48;9.20;;;2.65;;
52412;SDS011;38339;53.234;6.578;2022-07-22T02:59:14;9.27;;;3.30;;
52412;SDS011;38339;53.234;6.578;2022-07-22T03:01:39;8.82;;;2.83;;
52412;SDS011;38339;53.234;6.578;2022-07-22T03:04:05;7.55;;;2.40;;
52412;SDS011;38339;53.234;6.578;2022-07-22T03:06:31;7.20;;;2.70;;
52412;SDS011;38339;53.234;6.578;2022-07-22T03:08:57;5.57;;;2.75;;
52412;SDS011;38339;53.234;6.578;2022-07-22T03:11:22;7.93;;;2.53;;
52412;SDS011;38339;53.234;6.578;2022-07-22T03:13:48;8.75;;;2.70;;
52412;SDS011;38339;53.234;6.578;2022-07-22T03:16:13;7.20;;;2.63;;
52412;SDS011;38339;53.234;6.578;2022-07-22T03:18:39;8.80;;;2.50;;
52412;SDS011;38339;53.234;6.578;2022-07-22T03:21:05;11.25;;;3.38;;
52412;SDS011;38339;53.234;6.578;2022-07-22T03:23:31;12.48;;;2.65;;
52412;SDS011;38339;53.234;6.578;2022-07-22T03:25:56;9.90;;;2.70;;
52412;SDS011;38339;53.234;6.578;2022-07-22T03:28:22;6.88;;;2.35;;
52412;SDS011;38339;53.234;6.578;2022-07-22T03:30:48;7.18;;;2.78;;
52412;SDS011;38339;53.234;6.578;2022-07-22T03:33:14;10.10;;;2.50;;
52412;SDS011;38339;53.234;6.578;2022-07-22T03:35:40;8.13;;;2.42;;
52412;SDS011;38339;53.234;6.578;2022-07-22T03:38:06;10.60;;;2.75;;
52412;SDS011;38339;53.234;6.578;2022-07-22T03:40:31;9.75;;;2.60;;
52412;SDS011;38339;53.234;6.578;2022-07-22T03:42:57;8.98;;;2.78;;
52412;SDS011;38339;53.234;6.578;2022-07-22T03:45:23;9.27;;;2.70;;
52412;SDS011;38339;53.234;6.578;2022-07-22T03:47:48;7.05;;;2.53;;
52412;SDS011;38339;53.234;6.578;2022-07-22T03:50:14;7.25;;;2.80;;
52412;SDS011;38339;53.234;6.578;2022-07-22T03:52:40;10.75;;;2.90;;
52412;SDS011;38339;53.234;6.578;2022-07-22T03:55:05;10.85;;;2.65;;
52412;SDS011;38339;53.234;6.578;2022-07-22T03:57:32;8.10;;;2.65;;
52412;SDS011;38339;53.234;6.578;2022-07-22T03:59:57;7.18;;;2.72;;
52412;SDS011;38339;53.234;6.578;2022-07-22T04:02:23;9.27;;;2.30;;
52412;SDS011;38339;53.234;6.578;2022-07-22T04:04:49;8.23;;;3.00;;
52412;SDS011;38339;53.234;6.578;2022-07-22T04:07:15;10.15;;;2.85;;
52412;SDS011;38339;53.234;6.578;2022-07-22T04:09:40;10.95;;;3.03;;
52412;SDS011;38339;53.234;6.578;2022-07-22T04:12:06;11.50;;;3.38;;
52412;SDS011;38339;53.234;6.578;2022-07-22T04:14:32;9.68;;;2.70;;
52412;SDS011;38339;53.234;6.578;2022-07-22T04:16:58;3.80;;;2.30;;
52412;SDS011;38339;53.234;6.578;2022-07-22T04:19:24;7.88;;;2.60;;
52412;SDS011;38339;53.234;6.578;2022-07-22T04:21:49;10.82;;;3.00;;
52412;SDS011;38339;53.234;6.578;2022-07-22T04:24:15;12.07;;;2.78;;
52412;SDS011;38339;53.234;6.578;2022-07-22T04:26:41;11.43;;;3.10;;
52412;SDS011;38339;53.234;6.578;2022-07-22T04:29:06;10.50;;;2.97;;
52412;SDS011;38339;53.234;6.578;2022-07-22T04:31:32;16.98;;;3.55;;
52412;SDS011;38339;53.234;6.578;2022-07-22T04:33:58;12.30;;;3.10;;
52412;SDS011;38339;53.234;6.578;2022-07-22T04:36:24;10.00;;;2.92;;
52412;SDS011;38339;53.234;6.578;2022-07-22T04:38:49;8.15;;;2.97;;
52412;SDS011;38339;53.234;6.578;2022-07-22T04:41:16;8.48;;;2.60;;
52412;SDS011;38339;53.234;6.578;2022-07-22T04:43:41;10.77;;;2.92;;
52412;SDS011;38339;53.234;6.578;2022-07-22T04:46:07;10.88;;;2.80;;
52412;SDS011;38339;53.234;6.578;2022-07-22T04:48:33;8.38;;;2.42;;
52412;SDS011;38339;53.234;6.578;2022-07-22T04:50:59;9.23;;;2.63;;
52412;SDS011;38339;53.234;6.578;2022-07-22T04:53:26;5.85;;;2.50;;
52412;SDS011;38339;53.234;6.578;2022-07-22T04:55:52;8.07;;;2.35;;
52412;SDS011;38339;53.234;6.578;2022-07-22T04:58:18;10.60;;;2.90;;
52412;SDS011;38339;53.234;6.578;2022-07-22T05:00:43;9.55;;;2.95;;
52412;SDS011;38339;53.234;6.578;2022-07-22T05:03:09;6.28;;;2.28;;
52412;SDS011;38339;53.234;6.578;2022-07-22T05:05:34;8.25;;;2.30;;
52412;SDS011;38339;53.234;6.578;2022-07-22T05:08:00;8.57;;;2.88;;
52412;SDS011;38339;53.234;6.578;2022-07-22T05:10:26;7.78;;;2.35;;
52412;SDS011;38339;53.234;6.578;2022-07-22T05:12:52;6.95;;;2.47;;
52412;SDS011;38339;53.234;6.578;2022-07-22T05:15:18;9.90;;;2.70;;
52412;SDS011;38339;53.234;6.578;2022-07-22T05:17:44;12.70;;;3.22;;
52412;SDS011;38339;53.234;6.578;2022-07-22T05:20:10;5.28;;;2.40;;
52412;SDS011;38339;53.234;6.578;2022-07-22T05:22:36;9.65;;;2.65;;
52412;SDS011;38339;53.234;6.578;2022-07-22T05:25:01;7.35;;;2.60;;
52412;SDS011;38339;53.234;6.578;2022-07-22T05:27:27;8.00;;;2.25;;
52412;SDS011;38339;53.234;6.578;2022-07-22T05:29:53;7.38;;;2.40;;
52412;SDS011;38339;53.234;6.578;2022-07-22T05:32:19;6.10;;;2.45;;
52412;SDS011;38339;53.234;6.578;2022-07-22T05:34:44;10.32;;;2.90;;
52412;SDS011;38339;53.234;6.578;2022-07-22T05:37:10;10.32;;;2.92;;
52412;SDS011;38339;53.234;6.578;2022-07-22T05:39:36;9.93;;;2.42;;
52412;SDS011;38339;53.234;6.578;2022-07-22T05:42:01;5.97;;;2.40;;
52412;SDS011;38339;53.234;6.578;2022-07-22T05:44:27;5.93;;;2.30;;
52412;SDS011;38339;53.234;6.578;2022-07-22T05:46:53;9.95;;;2.60;;
52412;SDS011;38339;53.234;6.578;2022-07-22T05:49:18;8.50;;;2.75;;
52412;SDS011;38339;53.234;6.578;2022-07-22T05:51:45;11.05;;;2.60;;
52412;SDS011;38339;53.234;6.578;2022-07-22T05:54:11;9.45;;;2.55;;
52412;SDS011;38339;53.234;6.578;2022-07-22T05:56:36;11.25;;;2.55;;
52412;SDS011;38339;53.234;6.578;2022-07-22T05:59:02;7.22;;;2.30;;
52412;SDS011;38339;53.234;6.578;2022-07-22T06:01:28;8.80;;;2.42;;
52412;SDS011;38339;53.234;6.578;2022-07-22T06:03:53;4.82;;;2.22;;
52412;SDS011;38339;53.234;6.578;2022-07-22T06:06:19;8.73;;;2.53;;
52412;SDS011;38339;53.234;6.578;2022-07-22T06:08:45;9.98;;;2.85;;
52412;SDS011;38339;53.234;6.578;2022-07-22T06:11:10;7.18;;;2.67;;
52412;SDS011;38339;53.234;6.578;2022-07-22T06:13:37;7.38;;;2.63;;
52412;SDS011;38339;53.234;6.578;2022-07-22T06:16:03;8.75;;;2.40;;
52412;SDS011;38339;53.234;6.578;2022-07-22T06:18:29;7.75;;;2.42;;
52412;SDS011;38339;53.234;6.578;2022-07-22T06:20:54;8.45;;;2.90;;
52412;SDS011;38339;53.234;6.578;2022-07-22T06:23:22;7.90;;;2.72;;
52412;SDS011;38339;53.234;6.578;2022-07-22T06:25:49;7.65;;;2.30;;
52412;SDS011;38339;53.234;6.578;2022-07-22T06:28:14;11.13;;;2.53;;
52412;SDS011;38339;53.234;6.578;2022-07-22T06:30:40;5.10;;;2.08;;
52412;SDS011;38339;53.234;6.578;2022-07-22T06:33:06;6.95;;;2.15;;
52412;SDS011;38339;53.234;6.578;2022-07-22T06:35:32;6.10;;;2.38;;
52412;SDS011;38339;53.234;6.578;2022-07-22T06:37:58;7.65;;;2.75;;
52412;SDS011;38339;53.234;6.578;2022-07-22T06:40:24;9.20;;;2.30;;
52412;SDS011;38339;53.234;6.578;2022-07-22T06:42:50;5.97;;;2.50;;
52412;SDS011;38339;53.234;6.578;2022-07-22T06:45:15;5.55;;;2.38;;
52412;SDS011;38339;53.234;6.578;2022-07-22T06:47:41;7.68;;;2.40;;
52412;SDS011;38339;53.234;6.578;2022-07-22T06:50:07;7.50;;;2.20;;
52412;SDS011;38339;53.234;6.578;2022-07-22T06:52:33;10.25;;;2.38;;
52412;SDS011;38339;53.234;6.578;2022-07-22T06:54:59;6.00;;;2.30;;
52412;SDS011;38339;53.234;6.578;2022-07-22T06:57:26;7.15;;;2.17;;
52412;SDS011;38339;53.234;6.578;2022-07-22T06:59:51;5.15;;;2.22;;
52412;SDS011;38339;53.234;6.578;2022-07-22T07:02:17;7.47;;;2.00;;
52412;SDS011;38339;53.234;6.578;2022-07-22T07:04:43;4.72;;;1.90;;
52412;SDS011;38339;53.234;6.578;2022-07-22T07:07:10;6.28;;;2.20;;
52412;SDS011;38339;53.234;6.578;2022-07-22T07:09:36;6.65;;;2.10;;
52412;SDS011;38339;53.234;6.578;2022-07-22T07:12:01;4.63;;;1.77;;
52412;SDS011;38339;53.234;6.578;2022-07-22T07:14:27;4.50;;;1.80;;
52412;SDS011;38339;53.234;6.578;2022-07-22T07:16:53;6.47;;;1.70;;
52412;SDS011;38339;53.234;6.578;2022-07-22T07:19:18;5.80;;;1.88;;
52412;SDS011;38339;53.234;6.578;2022-07-22T07:21:45;3.50;;;1.63;;
52412;SDS011;38339;53.234;6.578;2022-07-22T07:24:10;7.40;;;1.75;;
52412;SDS011;38339;53.234;6.578;2022-07-22T07:26:36;4.72;;;2.00;;
52412;SDS011;38339;53.234;6.578;2022-07-22T07:29:03;6.13;;;1.75;;
52412;SDS011;38339;53.234;6.578;2022-07-22T07:31:28;5.63;;;1.95;;
52412;SDS011;38339;53.234;6.578;2022-07-22T07:33:55;4.68;;;1.80;;
52412;SDS011;38339;53.234;6.578;2022-07-22T07:36:21;5.13;;;1.80;;
52412;SDS011;38339;53.234;6.578;2022-07-22T07:38:47;7.18;;;1.77;;
52412;SDS011;38339;53.234;6.578;2022-07-22T07:41:12;6.38;;;1.85;;
52412;SDS011;38339;53.234;6.578;2022-07-22T07:43:38;5.18;;;1.85;;
52412;SDS011;38339;53.234;6.578;2022-07-22T07:46:04;7.20;;;2.33;;
52412;SDS011;38339;53.234;6.578;2022-07-22T07:48:30;5.97;;;1.88;;
52412;SDS011;38339;53.234;6.578;2022-07-22T07:50:56;5.85;;;1.83;;
52412;SDS011;38339;53.234;6.578;2022-07-22T07:53:23;7.13;;;2.08;;
52412;SDS011;38339;53.234;6.578;2022-07-22T07:55:49;5.22;;;1.77;;
52412;SDS011;38339;53.234;6.578;2022-07-22T07:58:14;4.60;;;1.67;;
52412;SDS011;38339;53.234;6.578;2022-07-22T08:00:40;9.65;;;2.17;;
52412;SDS011;38339;53.234;6.578;2022-07-22T08:03:08;4.03;;;1.67;;
52412;SDS011;38339;53.234;6.578;2022-07-22T08:05:35;16.20;;;2.30;;
52412;SDS011;38339;53.234;6.578;2022-07-22T08:08:07;8.75;;;2.80;;
52412;SDS011;38339;53.234;6.578;2022-07-22T08:10:32;5.75;;;1.73;;
52412;SDS011;38339;53.234;6.578;2022-07-22T08:12:58;6.13;;;1.80;;
52412;SDS011;38339;53.234;6.578;2022-07-22T08:15:27;4.97;;;1.88;;
52412;SDS011;38339;53.234;6.578;2022-07-22T08:17:54;5.80;;;1.67;;
52412;SDS011;38339;53.234;6.578;2022-07-22T08:20:20;4.95;;;1.85;;
52412;SDS011;38339;53.234;6.578;2022-07-22T08:22:46;5.95;;;1.80;;
52412;SDS011;38339;53.234;6.578;2022-07-22T08:25:12;6.82;;;1.80;;
52412;SDS011;38339;53.234;6.578;2022-07-22T08:27:38;7.28;;;2.03;;
52412;SDS011;38339;53.234;6.578;2022-07-22T08:30:05;9.98;;;2.38;;
52412;SDS011;38339;53.234;6.578;2022-07-22T08:32:32;6.65;;;1.92;;
52412;SDS011;38339;53.234;6.578;2022-07-22T08:34:58;8.32;;;1.80;;
52412;SDS011;38339;53.234;6.578;2022-07-22T08:37:24;6.70;;;2.25;;
52412;SDS011;38339;53.234;6.578;2022-07-22T08:39:50;6.95;;;2.17;;
52412;SDS011;38339;53.234;6.578;2022-07-22T08:42:20;8.80;;;2.00;;
52412;SDS011;38339;53.234;6.578;2022-07-22T08:44:48;6.20;;;2.03;;
52412;SDS011;38339;53.234;6.578;2022-07-22T08:47:14;6.57;;;1.98;;
52412;SDS011;38339;53.234;6.578;2022-07-22T08:49:40;6.72;;;2.00;;
52412;SDS011;38339;53.234;6.578;2022-07-22T08:52:06;9.40;;;1.92;;
52412;SDS011;38339;53.234;6.578;2022-07-22T08:54:32;6.90;;;1.98;;
52412;SDS011;38339;53.234;6.578;2022-07-22T08:56:57;8.18;;;2.10;;
52412;SDS011;38339;53.234;6.578;2022-07-22T08:59:24;6.95;;;2.13;;
52412;SDS011;38339;53.234;6.578;2022-07-22T09:02:09;6.75;;;2.50;;
52412;SDS011;38339;53.234;6.578;2022-07-22T09:04:50;11.57;;;3.22;;
52412;SDS011;38339;53.234;6.578;2022-07-22T09:07:35;7.90;;;2.38;;
52412;SDS011;38339;53.234;6.578;2022-07-22T09:10:05;6.40;;;2.13;;
52412;SDS011;38339;53.234;6.578;2022-07-22T09:12:32;5.55;;;1.80;;
52412;SDS011;38339;53.234;6.578;2022-07-22T09:15:00;5.53;;;1.67;;
52412;SDS011;38339;53.234;6.578;2022-07-22T09:17:35;8.00;;;2.25;;
52412;SDS011;38339;53.234;6.578;2022-07-22T09:20:04;7.45;;;2.00;;
52412;SDS011;38339;53.234;6.578;2022-07-22T09:22:41;8.55;;;1.98;;
52412;SDS011;38339;53.234;6.578;2022-07-22T09:30:33;6.88;;;2.05;;
52412;SDS011;38339;53.234;6.578;2022-07-22T09:33:00;6.72;;;2.08;;
52412;SDS011;38339;53.234;6.578;2022-07-22T09:35:26;8.40;;;2.13;;
52412;SDS011;38339;53.234;6.578;2022-07-22T09:37:57;5.93;;;2.00;;
52412;SDS011;38339;53.234;6.578;2022-07-22T09:40:28;5.97;;;1.70;;
52412;SDS011;38339;53.234;6.578;2022-07-22T09:42:57;9.27;;;2.15;;
52412;SDS011;38339;53.234;6.578;2022-07-22T09:45:25;5.93;;;2.30;;
52412;SDS011;38339;53.234;6.578;2022-07-22T09:47:54;6.40;;;2.35;;
52412;SDS011;38339;53.234;6.578;2022-07-22T09:50:22;5.30;;;1.70;;
52412;SDS011;38339;53.234;6.578;2022-07-22T09:52:53;7.28;;;1.90;;
52412;SDS011;38339;53.234;6.578;2022-07-22T09:55:21;5.05;;;1.90;;
52412;SDS011;38339;53.234;6.578;2022-07-22T09:57:49;5.97;;;1.90;;
52412;SDS011;38339;53.234;6.578;2022-07-22T10:00:17;5.78;;;1.70;;
52412;SDS011;38339;53.234;6.578;2022-07-22T10:02:52;4.28;;;1.83;;
52412;SDS011;38339;53.234;6.578;2022-07-22T10:05:23;5.05;;;1.85;;
52412;SDS011;38339;53.234;6.578;2022-07-22T10:07:51;7.13;;;1.58;;
52412;SDS011;38339;53.234;6.578;2022-07-22T10:10:20;5.32;;;1.75;;
52412;SDS011;38339;53.234;6.578;2022-07-22T10:12:48;6.15;;;1.85;;
52412;SDS011;38339;53.234;6.578;2022-07-22T10:15:15;3.85;;;1.30;;
52412;SDS011;38339;53.234;6.578;2022-07-22T10:17:43;4.80;;;1.40;;
52412;SDS011;38339;53.234;6.578;2022-07-22T10:20:11;3.75;;;1.50;;
52412;SDS011;38339;53.234;6.578;2022-07-22T10:25:10;7.15;;;2.00;;
52412;SDS011;38339;53.234;6.578;2022-07-22T10:30:23;7.50;;;1.95;;
52412;SDS011;38339;53.234;6.578;2022-07-22T10:35:33;5.95;;;2.00;;
52412;SDS011;38339;53.234;6.578;2022-07-22T10:38:03;4.88;;;1.83;;
52412;SDS011;38339;53.234;6.578;2022-07-22T10:40:31;5.13;;;1.70;;
52412;SDS011;38339;53.234;6.578;2022-07-22T10:43:11;6.63;;;2.05;;
52412;SDS011;38339;53.234;6.578;2022-07-22T10:48:43;5.78;;;1.98;;
52412;SDS011;38339;53.234;6.578;2022-07-22T10:51:17;2.33;;;1.30;;
52412;SDS011;38339;53.234;6.578;2022-07-22T10:53:49;4.90;;;1.73;;
52412;SDS011;38339;53.234;6.578;2022-07-22T10:59:10;5.03;;;1.85;;
52412;SDS011;38339;53.234;6.578;2022-07-22T11:01:38;5.18;;;1.48;;
52412;SDS011;38339;53.234;6.578;2022-07-22T11:04:08;6.90;;;2.15;;
52412;SDS011;38339;53.234;6.578;2022-07-22T11:06:34;15.82;;;8.18;;
52412;SDS011;38339;53.234;6.578;2022-07-22T11:09:02;3.55;;;1.17;;
52412;SDS011;38339;53.234;6.578;2022-07-22T11:14:14;2.53;;;1.40;;
52412;SDS011;38339;53.234;6.578;2022-07-22T11:16:47;3.22;;;1.45;;
52412;SDS011;38339;53.234;6.578;2022-07-22T11:19:18;3.40;;;1.48;;
52412;SDS011;38339;53.234;6.578;2022-07-22T11:21:55;5.10;;;1.30;;
52412;SDS011;38339;53.234;6.578;2022-07-22T11:24:24;6.65;;;1.58;;
52412;SDS011;38339;53.234;6.578;2022-07-22T11:26:51;3.25;;;1.23;;
52412;SDS011;38339;53.234;6.578;2022-07-22T11:29:24;2.65;;;1.40;;
52412;SDS011;38339;53.234;6.578;2022-07-22T11:31:50;6.00;;;1.30;;
52412;SDS011;38339;53.234;6.578;2022-07-22T11:34:16;2.83;;;1.15;;
52412;SDS011;38339;53.234;6.578;2022-07-22T11:36:44;2.65;;;1.08;;
52412;SDS011;38339;53.234;6.578;2022-07-22T11:39:11;4.60;;;1.42;;
52412;SDS011;38339;53.234;6.578;2022-07-22T11:41:39;2.20;;;1.10;;
52412;SDS011;38339;53.234;6.578;2022-07-22T11:44:05;2.60;;;1.10;;
52412;SDS011;38339;53.234;6.578;2022-07-22T11:46:41;3.13;;;1.23;;
52412;SDS011;38339;53.234;6.578;2022-07-22T11:49:07;3.05;;;1.13;;
52412;SDS011;38339;53.234;6.578;2022-07-22T11:51:36;3.22;;;1.38;;
52412;SDS011;38339;53.234;6.578;2022-07-22T11:54:03;3.22;;;1.30;;
52412;SDS011;38339;53.234;6.578;2022-07-22T11:56:30;3.55;;;1.20;;
52412;SDS011;38339;53.234;6.578;2022-07-22T11:58:57;5.60;;;1.40;;
52412;SDS011;38339;53.234;6.578;2022-07-22T12:01:27;3.40;;;1.10;;
52412;SDS011;38339;53.234;6.578;2022-07-22T12:03:56;3.42;;;1.38;;
52412;SDS011;38339;53.234;6.578;2022-07-22T12:06:23;5.10;;;1.10;;
52412;SDS011;38339;53.234;6.578;2022-07-22T12:08:52;5.32;;;1.23;;
52412;SDS011;38339;53.234;6.578;2022-07-22T12:11:29;11.75;;;6.38;;
52412;SDS011;38339;53.234;6.578;2022-07-22T12:13:55;14.15;;;8.80;;
52412;SDS011;38339;53.234;6.578;2022-07-22T12:16:23;3.80;;;1.20;;
52412;SDS011;38339;53.234;6.578;2022-07-22T12:18:58;5.07;;;2.25;;
52412;SDS011;38339;53.234;6.578;2022-07-22T12:21:30;3.15;;;1.70;;
52412;SDS011;38339;53.234;6.578;2022-07-22T12:24:07;4.53;;;1.42;;
52412;SDS011;38339;53.234;6.578;2022-07-22T12:29:17;5.22;;;1.30;;
52412;SDS011;38339;53.234;6.578;2022-07-22T12:31:44;2.95;;;1.20;;
52412;SDS011;38339;53.234;6.578;2022-07-22T12:34:10;3.15;;;1.50;;
52412;SDS011;38339;53.234;6.578;2022-07-22T12:36:36;4.47;;;1.30;;
52412;SDS011;38339;53.234;6.578;2022-07-22T12:39:11;2.70;;;1.30;;
52412;SDS011;38339;53.234;6.578;2022-07-22T12:41:53;5.30;;;1.52;;
52412;SDS011;38339;53.234;6.578;2022-07-22T12:44:23;3.75;;;1.40;;
52412;SDS011;38339;53.234;6.578;2022-07-22T12:46:52;5.85;;;1.65;;
52412;SDS011;38339;53.234;6.578;2022-07-22T12:49:23;3.90;;;1.60;;
52412;SDS011;38339;53.234;6.578;2022-07-22T12:54:35;3.78;;;1.20;;
52412;SDS011;38339;53.234;6.578;2022-07-22T12:57:02;9.75;;;1.45;;
52412;SDS011;38339;53.234;6.578;2022-07-22T12:59:30;1.73;;;1.10;;
52412;SDS011;38339;53.234;6.578;2022-07-22T13:01:55;5.95;;;1.60;;
52412;SDS011;38339;53.234;6.578;2022-07-22T13:04:21;5.93;;;1.80;;
52412;SDS011;38339;53.234;6.578;2022-07-22T13:06:47;4.13;;;1.60;;
52412;SDS011;38339;53.234;6.578;2022-07-22T13:09:14;5.75;;;3.05;;
52412;SDS011;38339;53.234;6.578;2022-07-22T13:11:39;2.83;;;1.20;;
52412;SDS011;38339;53.234;6.578;2022-07-22T13:14:08;1.85;;;1.38;;
52412;SDS011;38339;53.234;6.578;2022-07-22T13:16:35;3.05;;;1.20;;
52412;SDS011;38339;53.234;6.578;2022-07-22T13:19:00;6.38;;;1.58;;
52412;SDS011;38339;53.234;6.578;2022-07-22T13:21:26;3.25;;;1.60;;
52412;SDS011;38339;53.234;6.578;2022-07-22T13:23:52;4.25;;;1.50;;
52412;SDS011;38339;53.234;6.578;2022-07-22T13:26:18;5.35;;;1.55;;
52412;SDS011;38339;53.234;6.578;2022-07-22T13:28:43;4.28;;;1.60;;
52412;SDS011;38339;53.234;6.578;2022-07-22T13:31:10;5.05;;;1.70;;
52412;SDS011;38339;53.234;6.578;2022-07-22T13:33:35;5.05;;;1.50;;
52412;SDS011;38339;53.234;6.578;2022-07-22T13:36:01;5.97;;;1.40;;
52412;SDS011;38339;53.234;6.578;2022-07-22T13:38:27;3.72;;;1.27;;
52412;SDS011;38339;53.234;6.578;2022-07-22T13:40:54;6.15;;;1.70;;
52412;SDS011;38339;53.234;6.578;2022-07-22T13:43:21;5.28;;;1.60;;
52412;SDS011;38339;53.234;6.578;2022-07-22T13:45:48;5.60;;;1.35;;
52412;SDS011;38339;53.234;6.578;2022-07-22T13:48:14;3.50;;;1.30;;
52412;SDS011;38339;53.234;6.578;2022-07-22T13:50:42;3.75;;;1.40;;
52412;SDS011;38339;53.234;6.578;2022-07-22T13:53:08;6.47;;;1.40;;
52412;SDS011;38339;53.234;6.578;2022-07-22T13:55:33;2.58;;;1.40;;
52412;SDS011;38339;53.234;6.578;2022-07-22T13:58:02;4.45;;;1.10;;
52412;SDS011;38339;53.234;6.578;2022-07-22T14:00:28;4.72;;;1.40;;
52412;SDS011;38339;53.234;6.578;2022-07-22T14:02:54;4.30;;;1.27;;
52412;SDS011;38339;53.234;6.578;2022-07-22T14:05:19;9.85;;;1.77;;
52412;SDS011;38339;53.234;6.578;2022-07-22T14:07:45;4.75;;;1.50;;
52412;SDS011;38339;53.234;6.578;2022-07-22T14:10:11;7.82;;;1.75;;
52412;SDS011;38339;53.234;6.578;2022-07-22T14:12:37;2.72;;;1.42;;
52412;SDS011;38339;53.234;6.578;2022-07-22T14:15:02;4.65;;;1.42;;
52412;SDS011;38339;53.234;6.578;2022-07-22T14:17:28;3.22;;;1.40;;
52412;SDS011;38339;53.234;6.578;2022-07-22T14:19:54;4.53;;;1.40;;
52412;SDS011;38339;53.234;6.578;2022-07-22T14:22:20;4.68;;;1.50;;
52412;SDS011;38339;53.234;6.578;2022-07-22T14:24:47;5.07;;;1.52;;
52412;SDS011;38339;53.234;6.578;2022-07-22T14:27:13;2.38;;;1.23;;
52412;SDS011;38339;53.234;6.578;2022-07-22T14:29:38;3.65;;;1.33;;
52412;SDS011;38339;53.234;6.578;2022-07-22T14:32:04;4.85;;;1.38;;
52412;SDS011;38339;53.234;6.578;2022-07-22T14:34:31;2.78;;;1.35;;
52412;SDS011;38339;53.234;6.578;2022-07-22T14:36:57;5.78;;;1.60;;
52412;SDS011;38339;53.234;6.578;2022-07-22T14:39:23;2.55;;;1.48;;
52412;SDS011;38339;53.234;6.578;2022-07-22T14:41:48;4.82;;;1.50;;
52412;SDS011;38339;53.234;6.578;2022-07-22T14:44:14;5.55;;;1.42;;
52412;SDS011;38339;53.234;6.578;2022-07-22T14:46:40;2.00;;;1.33;;
52412;SDS011;38339;53.234;6.578;2022-07-22T14:49:06;5.03;;;1.73;;
52412;SDS011;38339;53.234;6.578;2022-07-22T14:51:32;2.58;;;1.30;;
52412;SDS011;38339;53.234;6.578;2022-07-22T14:53:58;5.30;;;1.30;;
52412;SDS011;38339;53.234;6.578;2022-07-22T14:56:23;4.78;;;1.35;;
52412;SDS011;38339;53.234;6.578;2022-07-22T14:58:49;3.13;;;1.55;;
52412;SDS011;38339;53.234;6.578;2022-07-22T15:01:15;5.22;;;1.50;;
52412;SDS011;38339;53.234;6.578;2022-07-22T15:03:41;4.57;;;1.65;;
52412;SDS011;38339;53.234;6.578;2022-07-22T15:06:12;4.97;;;1.30;;
52412;SDS011;38339;53.234;6.578;2022-07-22T15:08:38;4.82;;;1.48;;
52412;SDS011;38339;53.234;6.578;2022-07-22T15:11:03;5.30;;;1.70;;